createdAt,value
2022-08-27T00:00:44.356Z,96359.69
2022-08-27T00:03:11.423Z,96357.53
2022-08-27T00:05:38.439Z,96360.22
2022-08-27T00:08:06.407Z,96354.50
2022-08-27T00:10:33.874Z,96356.44
2022-08-27T00:13:01.359Z,96353.56
2022-08-27T00:15:28.707Z,96354.16
2022-08-27T00:17:55.427Z,96347.72
2022-08-27T00:20:25.890Z,96350.38
2022-08-27T00:22:53.011Z,96357.75
2022-08-27T00:25:20.549Z,96346.13
2022-08-27T00:27:47.115Z,96346.69
2022-08-27T00:30:16.061Z,96344.09
2022-08-27T00:32:42.471Z,96345.72
2022-08-27T00:35:09.333Z,96346.84
2022-08-27T00:37:35.900Z,96338.16
2022-08-27T00:40:02.677Z,96336.63
2022-08-27T00:42:29.472Z,96336.19
2022-08-27T00:44:59.231Z,96327.94
2022-08-27T00:47:29.185Z,96327.44
2022-08-27T00:50:02.291Z,96321.91
2022-08-27T00:52:33.741Z,96328.56
2022-08-27T00:55:05.827Z,96329.59
2022-08-27T00:57:35.935Z,96332.94
2022-08-27T01:00:04.316Z,96319.88
2022-08-27T01:02:31.591Z,96324.88
2022-08-27T01:05:07.438Z,96313.41
2022-08-27T01:07:38.407Z,96316.72
2022-08-27T01:10:08.695Z,96317.97
2022-08-27T01:12:35.851Z,96310.59
2022-08-27T01:15:08.782Z,96312.22
2022-08-27T01:17:39.173Z,96311.81
2022-08-27T01:20:09.820Z,96310.19
2022-08-27T01:23:20.783Z,96307.34
2022-08-27T01:25:47.864Z,96302.81
2022-08-27T01:28:14.708Z,96300.97
2022-08-27T01:30:41.737Z,96304.66
2022-08-27T01:33:19.345Z,96299.69
2022-08-27T01:35:48.326Z,96305.22
2022-08-27T01:38:30.342Z,96299.25
2022-08-27T01:40:58.961Z,96295.31
2022-08-27T01:43:27.319Z,96294.72
2022-08-27T01:45:53.657Z,96297.78
2022-08-27T01:48:22.045Z,96291.84
2022-08-27T01:50:49.135Z,96298.38
2022-08-27T01:53:18.883Z,96290.59
2022-08-27T01:55:48.302Z,96293.28
2022-08-27T01:58:16.244Z,96293.50
2022-08-27T02:00:46.153Z,96283.00
2022-08-27T02:03:12.956Z,96291.25
2022-08-27T02:05:44.765Z,96286.69
2022-08-27T02:08:12.493Z,96291.84
2022-08-27T02:10:40.557Z,96288.97
2022-08-27T02:13:08.136Z,96290.59
2022-08-27T02:15:36.292Z,96294.94
2022-08-27T02:18:04.580Z,96291.66
2022-08-27T02:20:31.395Z,96287.13
2022-08-27T02:22:58.537Z,96291.41
2022-08-27T02:25:25.570Z,96292.91
2022-08-27T02:27:51.932Z,96290.22
2022-08-27T02:30:21.970Z,96284.63
2022-08-27T02:32:49.424Z,96289.19
2022-08-27T02:35:18.150Z,96280.97
2022-08-27T02:37:45.591Z,96279.69
2022-08-27T02:40:16.315Z,96273.97
2022-08-27T02:42:44.301Z,96275.00
2022-08-27T02:45:13.202Z,96267.84
2022-08-27T02:47:39.583Z,96268.25
2022-08-27T02:50:06.820Z,96273.19
2022-08-27T02:52:33.353Z,96267.44
2022-08-27T02:54:59.913Z,96263.94
2022-08-27T02:57:27.119Z,96262.31
2022-08-27T02:59:54.070Z,96258.81
2022-08-27T03:02:21.412Z,96255.53
2022-08-27T03:04:49.475Z,96253.88
2022-08-27T03:07:19.052Z,96261.47
2022-08-27T03:09:45.639Z,96261.66
2022-08-27T03:12:12.781Z,96256.34
2022-08-27T03:14:39.136Z,96252.84
2022-08-27T03:17:24.084Z,96258.97
2022-08-27T03:19:50.538Z,96254.47
2022-08-27T03:22:16.941Z,96259.19
2022-08-27T03:24:43.327Z,96255.06
2022-08-27T03:27:09.769Z,96251.38
2022-08-27T03:29:36.391Z,96244.81
2022-08-27T03:32:06.805Z,96241.34
2022-08-27T03:34:33.504Z,96240.50
2022-08-27T03:37:00.316Z,96238.66
2022-08-27T03:39:26.699Z,96246.00
2022-08-27T03:41:55.362Z,96243.53
2022-08-27T03:44:23.948Z,96245.75
2022-08-27T03:46:51.761Z,96244.75
2022-08-27T03:49:20.566Z,96255.44
2022-08-27T03:51:48.209Z,96248.47
2022-08-27T03:54:14.815Z,96250.28
2022-08-27T03:56:41.608Z,96251.72
2022-08-27T03:59:08.241Z,96248.06
2022-08-27T04:01:34.722Z,96248.91
2022-08-27T04:04:01.149Z,96248.06
2022-08-27T04:06:28.259Z,96235.78
2022-08-27T04:08:54.632Z,96240.91
2022-08-27T04:11:22.229Z,96238.25
2022-08-27T04:13:48.710Z,96237.22
2022-08-27T04:16:15.171Z,96227.13
2022-08-27T04:18:41.611Z,96229.81
2022-08-27T04:21:11.304Z,96229.22
2022-08-27T04:23:39.095Z,96229.59
2022-08-27T04:26:07.294Z,96221.00
2022-08-27T04:28:38.251Z,96228.84
2022-08-27T04:31:12.884Z,96228.56
2022-08-27T04:33:43.685Z,96227.97
2022-08-27T04:36:17.802Z,96222.63
2022-08-27T04:38:44.125Z,96231.69
2022-08-27T04:41:20.012Z,96227.56
2022-08-27T04:43:56.127Z,96224.91
2022-08-27T04:46:25.325Z,96225.97
2022-08-27T04:48:53.068Z,96239.75
2022-08-27T04:51:20.820Z,96239.13
2022-08-27T04:53:48.327Z,96233.16
2022-08-27T04:56:16.909Z,96234.38
2022-08-27T04:58:44.076Z,96232.31
2022-08-27T05:01:16.705Z,96243.63
2022-08-27T05:03:43.141Z,96239.50
2022-08-27T05:06:09.673Z,96246.91
2022-08-27T05:08:36.269Z,96248.59
2022-08-27T05:11:02.675Z,96247.16
2022-08-27T05:13:29.870Z,96244.25
2022-08-27T05:16:02.299Z,96250.84
2022-08-27T05:18:29.336Z,96254.53
2022-08-27T05:20:57.145Z,96247.75
2022-08-27T05:23:24.483Z,96249.00
2022-08-27T05:25:53.484Z,96249.38
2022-08-27T05:28:21.795Z,96246.50
2022-08-27T05:31:04.295Z,96245.31
2022-08-27T05:33:30.694Z,96244.13
2022-08-27T05:35:58.924Z,96243.28
2022-08-27T05:38:28.062Z,96243.69
2022-08-27T05:41:09.041Z,96244.53
2022-08-27T05:43:36.772Z,96238.75
2022-08-27T05:46:09.353Z,96247.97
2022-08-27T05:48:37.378Z,96243.28
2022-08-27T05:51:16.147Z,96248.63
2022-08-27T05:53:46.706Z,96245.34
2022-08-27T05:56:19.198Z,96252.56
2022-08-27T05:59:05.498Z,96248.81
2022-08-27T06:01:37.255Z,96240.81
2022-08-27T06:04:04.776Z,96245.31
2022-08-27T06:06:34.858Z,96239.53
2022-08-27T06:09:01.248Z,96240.34
2022-08-27T06:11:27.895Z,96240.75
2022-08-27T06:13:55.948Z,96240.53
2022-08-27T06:18:49.783Z,96243.63
2022-08-27T06:21:24.237Z,96243.19
2022-08-27T06:23:51.952Z,96245.22
2022-08-27T06:26:20.307Z,96241.97
2022-08-27T06:28:46.826Z,96249.75
2022-08-27T06:31:19.858Z,96246.25
2022-08-27T06:33:47.454Z,96251.81
2022-08-27T06:36:16.858Z,96244.44
2022-08-27T06:38:43.832Z,96255.06
2022-08-27T06:41:23.178Z,96256.31
2022-08-27T06:43:50.528Z,96264.53
2022-08-27T06:46:20.169Z,96258.34
2022-08-27T06:48:47.752Z,96262.28
2022-08-27T06:51:17.320Z,96261.66
2022-08-27T06:53:45.386Z,96268.19
2022-08-27T06:56:12.252Z,96267.75
2022-08-27T06:58:38.588Z,96265.03
2022-08-27T07:01:20.163Z,96268.16
2022-08-27T07:03:46.804Z,96267.50
2022-08-27T07:06:16.988Z,96271.06
2022-08-27T07:08:43.742Z,96262.69
2022-08-27T07:11:20.092Z,96272.28
2022-08-27T07:13:48.449Z,96273.56
2022-08-27T07:16:18.962Z,96266.56
2022-08-27T07:18:45.785Z,96268.38
2022-08-27T07:21:12.539Z,96269.56
2022-08-27T07:23:40.191Z,96272.63
2022-08-27T07:26:11.591Z,96280.81
2022-08-27T07:28:39.569Z,96282.44
2022-08-27T07:31:09.190Z,96285.94
2022-08-27T07:33:37.273Z,96288.47
2022-08-27T07:36:06.157Z,96293.19
2022-08-27T07:38:32.998Z,96286.41
2022-08-27T07:40:59.888Z,96288.25
2022-08-27T07:43:44.948Z,96285.56
2022-08-27T07:46:11.331Z,96290.63
2022-08-27T07:48:37.867Z,96288.59
2022-08-27T07:51:05.311Z,96297.03
2022-08-27T07:53:33.067Z,96291.13
2022-08-27T07:56:07.621Z,96291.56
2022-08-27T07:58:34.541Z,96295.41
2022-08-27T08:01:01.136Z,96303.84
2022-08-27T08:03:28.267Z,96293.31
2022-08-27T08:05:55.816Z,96293.09
2022-08-27T08:08:23.946Z,96296.97
2022-08-27T08:10:50.635Z,96303.09
2022-08-27T08:13:18.691Z,96294.50
2022-08-27T08:15:46.662Z,96298.41
2022-08-27T08:18:14.083Z,96302.31
2022-08-27T08:20:57.449Z,96301.19
2022-08-27T08:23:24.234Z,96293.41
2022-08-27T08:25:50.559Z,96304.00
2022-08-27T08:28:16.908Z,96306.47
2022-08-27T08:30:44.169Z,96304.78
2022-08-27T08:33:10.543Z,96306.16
2022-08-27T08:35:41.274Z,96312.97
2022-08-27T08:38:08.217Z,96318.28
2022-08-27T08:40:38.691Z,96310.41
2022-08-27T08:43:10.001Z,96307.34
2022-08-27T08:45:40.931Z,96317.06
2022-08-27T08:48:22.491Z,96320.38
2022-08-27T08:51:01.331Z,96322.97
2022-08-27T08:54:01.165Z,96318.63
2022-08-27T08:56:36.025Z,96321.84
2022-08-27T08:59:09.597Z,96319.78
2022-08-27T09:01:36.001Z,96314.75
2022-08-27T09:04:09.176Z,96316.53
2022-08-27T09:06:50.483Z,96322.59
2022-08-27T09:09:32.383Z,96317.06
2022-08-27T09:12:11.641Z,96322.34
2022-08-27T09:14:51.952Z,96316.94
2022-08-27T09:17:20.573Z,96322.59
2022-08-27T09:19:46.941Z,96316.00
2022-08-27T09:22:38.230Z,96321.88
2022-08-27T09:25:11.575Z,96324.88
2022-08-27T09:27:41.995Z,96326.94
2022-08-27T09:30:20.625Z,96318.94
2022-08-27T09:32:57.731Z,96315.03
2022-08-27T09:35:27.200Z,96328.75
2022-08-27T09:37:55.942Z,96320.63
2022-08-27T09:40:42.180Z,96323.31
2022-08-27T09:43:22.423Z,96318.94
2022-08-27T09:45:52.417Z,96332.34
2022-08-27T09:48:24.877Z,96321.56
2022-08-27T09:50:55.926Z,96324.53
2022-08-27T09:53:45.347Z,96314.03
2022-08-27T09:56:36.511Z,96315.00
2022-08-27T09:59:22.936Z,96322.38
2022-08-27T10:01:56.021Z,96311.56
2022-08-27T10:04:34.931Z,96321.16
2022-08-27T10:07:42.987Z,96313.56
2022-08-27T10:10:29.288Z,96304.66
2022-08-27T10:13:10.250Z,96304.81
2022-08-27T10:16:02.053Z,96305.91
2022-08-27T10:18:41.333Z,96303.75
2022-08-27T10:21:33.890Z,96302.34
2022-08-27T10:24:46.878Z,96291.63
2022-08-27T10:27:25.224Z,96296.31
2022-08-27T10:30:04.044Z,96296.13
2022-08-27T10:33:07.075Z,96302.09
2022-08-27T10:36:00.660Z,96296.63
2022-08-27T10:38:33.007Z,96299.47
2022-08-27T10:41:13.739Z,96293.63
2022-08-27T10:44:10.037Z,96292.56
2022-08-27T10:46:55.658Z,96292.97
2022-08-27T10:49:35.483Z,96292.78
2022-08-27T10:52:10.303Z,96285.44
2022-08-27T10:54:47.822Z,96284.09
2022-08-27T10:57:56.439Z,96282.44
2022-08-27T11:00:36.278Z,96278.53
2022-08-27T11:03:09.257Z,96277.84
2022-08-27T11:05:49.039Z,96280.31
2022-08-27T11:08:27.557Z,96272.34
2022-08-27T11:11:25.983Z,96273.56
2022-08-27T11:13:53.203Z,96271.13
2022-08-27T11:16:32.939Z,96265.31
2022-08-27T11:19:18.530Z,96264.59
2022-08-27T11:22:02.796Z,96262.28
2022-08-27T11:24:49.419Z,96257.34
2022-08-27T11:27:23.267Z,96259.31
2022-08-27T11:30:09.291Z,96262.03
2022-08-27T11:32:46.671Z,96256.56
2022-08-27T11:35:26.290Z,96263.69
2022-08-27T11:38:27.459Z,96259.75
2022-08-27T11:41:28.465Z,96263.00
2022-08-27T11:43:55.650Z,96251.59
2022-08-27T11:46:27.778Z,96260.88
2022-08-27T11:49:03.391Z,96259.97
2022-08-27T11:51:36.623Z,96249.97
2022-08-27T11:54:10.059Z,96247.38
2022-08-27T11:56:42.770Z,96247.59
2022-08-27T11:59:10.695Z,96249.44
2022-08-27T12:01:38.541Z,96250.84
2022-08-27T12:04:18.975Z,96249.78
2022-08-27T12:06:51.491Z,96240.34
2022-08-27T12:09:22.327Z,96245.53
2022-08-27T12:12:06.507Z,96238.69
2022-08-27T12:15:14.984Z,96235.34
2022-08-27T12:17:55.956Z,96229.59
2022-08-27T12:20:50.103Z,96229.13
2022-08-27T12:23:40.283Z,96228.66
2022-08-27T12:26:16.193Z,96213.38
2022-08-27T12:28:42.645Z,96212.03
2022-08-27T12:31:09.236Z,96215.78
2022-08-27T12:33:58.086Z,96221.72
2022-08-27T12:36:28.597Z,96214.63
2022-08-27T12:38:58.290Z,96213.00
2022-08-27T12:41:44.053Z,96220.28
2022-08-27T12:44:14.393Z,96222.84
2022-08-27T12:46:54.526Z,96221.94
2022-08-27T12:49:38.863Z,96211.53
2022-08-27T12:52:17.731Z,96203.47
2022-08-27T12:55:04.378Z,96202.81
2022-08-27T12:57:45.826Z,96205.16
2022-08-27T13:00:22.896Z,96204.59
2022-08-27T13:03:06.869Z,96194.75
2022-08-27T13:05:43.528Z,96191.19
2022-08-27T13:08:22.767Z,96187.94
2022-08-27T13:10:50.310Z,96192.91
2022-08-27T13:13:22.786Z,96184.13
2022-08-27T13:15:55.625Z,96179.88
2022-08-27T13:18:23.508Z,96184.56
2022-08-27T13:20:53.223Z,96180.63
2022-08-27T13:23:23.787Z,96181.31
2022-08-27T13:26:21.644Z,96180.00
2022-08-27T13:28:49.715Z,96182.81
2022-08-27T13:31:16.899Z,96181.66
2022-08-27T13:33:44.249Z,96183.50
2022-08-27T13:36:11.526Z,96189.72
2022-08-27T13:38:49.352Z,96185.78
2022-08-27T13:41:24.539Z,96185.41
2022-08-27T13:43:52.989Z,96190.47
2022-08-27T13:46:26.226Z,96184.69
2022-08-27T13:48:55.205Z,96186.22
2022-08-27T13:51:33.225Z,96191.47
2022-08-27T13:54:14.395Z,96189.50
2022-08-27T13:56:46.853Z,96196.47
2022-08-27T13:59:16.256Z,96195.66
2022-08-27T14:02:15.430Z,96196.56
2022-08-27T14:04:44.666Z,96192.75
2022-08-27T14:07:23.602Z,96196.06
2022-08-27T14:10:15.423Z,96192.75
2022-08-27T14:12:42.087Z,96201.22
2022-08-27T14:15:27.373Z,96202.22
2022-08-27T14:17:54.063Z,96196.94
2022-08-27T14:20:21.577Z,96202.50
2022-08-27T14:22:48.534Z,96208.38
2022-08-27T14:25:17.494Z,96204.88
2022-08-27T14:27:54.241Z,96211.94
2022-08-27T14:30:28.951Z,96213.66
2022-08-27T14:32:58.371Z,96219.22
2022-08-27T14:35:25.311Z,96219.09
2022-08-27T14:37:51.931Z,96213.09
2022-08-27T14:40:18.674Z,96212.72
2022-08-27T14:42:45.672Z,96223.50
2022-08-27T14:45:12.054Z,96216.47
2022-08-27T14:47:39.856Z,96220.03
2022-08-27T14:50:12.243Z,96216.91
2022-08-27T14:52:40.767Z,96214.16
2022-08-27T14:55:10.828Z,96221.50
2022-08-27T14:57:37.973Z,96220.13
2022-08-27T15:00:07.649Z,96221.06
2022-08-27T15:02:34.910Z,96230.41
2022-08-27T15:05:01.365Z,96237.22
2022-08-27T15:07:37.662Z,96233.59
2022-08-27T15:10:04.712Z,96231.13
2022-08-27T15:12:31.343Z,96229.53
2022-08-27T15:14:57.707Z,96237.69
2022-08-27T15:17:34.367Z,96235.22
2022-08-27T15:20:05.419Z,96240.28
2022-08-27T15:22:33.970Z,96243.41
2022-08-27T15:25:02.031Z,96237.56
2022-08-27T15:27:38.810Z,96235.31
2022-08-27T15:30:11.637Z,96246.31
2022-08-27T15:32:41.935Z,96243.94
2022-08-27T15:35:13.678Z,96243.59
2022-08-27T15:37:41.386Z,96250.59
2022-08-27T15:40:09.295Z,96255.09
2022-08-27T15:42:36.042Z,96256.94
2022-08-27T15:45:03.123Z,96276.84
2022-08-27T15:47:29.472Z,96272.69
2022-08-27T15:49:55.902Z,96273.00
2022-08-27T15:52:23.130Z,96261.16
2022-08-27T15:54:51.365Z,96263.03
2022-08-27T15:57:20.231Z,96264.28
2022-08-27T15:59:47.577Z,96267.13
2022-08-27T16:02:23.442Z,96257.06
2022-08-27T16:04:50.332Z,96250.16
2022-08-27T16:07:17.782Z,96259.63
2022-08-27T16:09:47.752Z,96265.41
2022-08-27T16:12:26.802Z,96273.31
2022-08-27T16:14:54.143Z,96275.06
2022-08-27T16:17:21.309Z,96273.84
2022-08-27T16:19:47.846Z,96274.94
2022-08-27T16:22:16.024Z,96269.50
2022-08-27T16:24:42.389Z,96271.69
2022-08-27T16:27:08.725Z,96265.22
2022-08-27T16:29:35.269Z,96267.13
2022-08-27T16:32:01.866Z,96263.72
2022-08-27T16:34:28.794Z,96267.22
2022-08-27T16:36:56.106Z,96262.94
2022-08-27T16:39:22.928Z,96259.69
2022-08-27T16:41:50.211Z,96261.16
2022-08-27T16:44:17.506Z,96256.50
2022-08-27T16:46:43.916Z,96255.56
2022-08-27T16:49:29.045Z,96251.16
2022-08-27T16:51:55.541Z,96251.06
2022-08-27T16:54:22.201Z,96246.72
2022-08-27T16:56:48.557Z,96250.78
2022-08-27T16:59:15.932Z,96242.88
2022-08-27T17:01:43.580Z,96240.03
2022-08-27T17:04:19.382Z,96240.91
2022-08-27T17:06:54.689Z,96243.66
2022-08-27T17:09:21.275Z,96235.03
2022-08-27T17:11:53.323Z,96236.13
2022-08-27T17:14:20.074Z,96237.56
2022-08-27T17:16:46.398Z,96242.50
2022-08-27T17:19:16.825Z,96246.53
2022-08-27T17:21:45.068Z,96244.00
2022-08-27T17:24:12.747Z,96251.13
2022-08-27T17:26:39.549Z,96254.88
2022-08-27T17:29:06.205Z,96252.63
2022-08-27T17:31:36.759Z,96255.66
2022-08-27T17:34:05.649Z,96258.38
2022-08-27T17:36:32.256Z,96250.84
2022-08-27T17:38:59.842Z,96251.34
2022-08-27T17:41:34.127Z,96255.50
2022-08-27T17:44:05.686Z,96259.28
2022-08-27T17:46:32.234Z,96263.56
2022-08-27T17:48:59.636Z,96270.41
2022-08-27T17:51:28.018Z,96269.38
2022-08-27T17:54:00.520Z,96264.31
2022-08-27T17:56:27.537Z,96272.34
2022-08-27T17:58:55.024Z,96267.88
2022-08-27T18:01:24.982Z,96269.44
2022-08-27T18:03:56.779Z,96271.34
2022-08-27T18:06:24.304Z,96268.97
2022-08-27T18:08:50.722Z,96266.81
2022-08-27T18:11:17.470Z,96271.81
2022-08-27T18:13:52.586Z,96271.00
2022-08-27T18:16:19.742Z,96265.94
2022-08-27T18:18:46.454Z,96267.78
2022-08-27T18:21:13.609Z,96273.22
2022-08-27T18:23:51.391Z,96278.44
2022-08-27T18:26:20.277Z,96280.81
2022-08-27T18:28:47.612Z,96283.94
2022-08-27T18:31:17.215Z,96279.00
2022-08-27T18:33:43.619Z,96289.41
2022-08-27T18:36:10.261Z,96284.41
2022-08-27T18:38:36.848Z,96294.22
2022-08-27T18:41:03.310Z,96295.47
2022-08-27T18:43:34.806Z,96290.66
2022-08-27T18:46:04.442Z,96295.13
2022-08-27T18:48:30.917Z,96304.41
2022-08-27T18:50:59.239Z,96309.31
2022-08-27T18:53:27.951Z,96317.66
2022-08-27T18:55:54.513Z,96315.44
2022-08-27T18:58:21.782Z,96320.97
2022-08-27T19:00:52.084Z,96322.25
2022-08-27T19:03:25.311Z,96328.28
2022-08-27T19:05:55.062Z,96342.00
2022-08-27T19:08:23.135Z,96349.06
2022-08-27T19:10:49.651Z,96355.97
2022-08-27T19:13:16.153Z,96364.97
2022-08-27T19:15:46.382Z,96351.59
2022-08-27T19:18:13.070Z,96366.13
2022-08-27T19:20:39.548Z,96366.03
2022-08-27T19:23:05.949Z,96373.84
2022-08-27T19:25:32.303Z,96372.81
2022-08-27T19:27:58.759Z,96368.59
2022-08-27T19:30:25.148Z,96374.75
2022-08-27T19:32:54.983Z,96376.81
2022-08-27T19:35:24.604Z,96376.47
2022-08-27T19:37:52.752Z,96376.03
2022-08-27T19:40:21.599Z,96374.41
2022-08-27T19:42:48.094Z,96363.28
2022-08-27T19:45:14.703Z,96370.03
2022-08-27T19:47:41.203Z,96373.97
2022-08-27T19:50:09.713Z,96374.84
2022-08-27T19:52:36.145Z,96378.78
2022-08-27T19:55:13.675Z,96367.06
2022-08-27T19:57:41.473Z,96373.97
2022-08-27T20:00:09.531Z,96362.50
2022-08-27T20:02:36.310Z,96373.63
2022-08-27T20:05:17.446Z,96378.97
2022-08-27T20:07:44.402Z,96376.06
2022-08-27T20:10:10.810Z,96373.19
2022-08-27T20:12:37.469Z,96376.50
2022-08-27T20:15:06.135Z,96374.88
2022-08-27T20:17:33.407Z,96376.91
2022-08-27T20:20:00.029Z,96378.56
2022-08-27T20:22:27.469Z,96378.16
2022-08-27T20:24:53.909Z,96372.59
2022-08-27T20:27:20.268Z,96376.94
2022-08-27T20:29:46.652Z,96376.53
2022-08-27T20:32:13.595Z,96366.03
2022-08-27T20:34:40.042Z,96362.75
2022-08-27T20:37:06.436Z,96359.81
2022-08-27T20:39:32.917Z,96362.13
2022-08-27T20:41:59.641Z,96368.53
2022-08-27T20:44:26.109Z,96373.63
2022-08-27T20:46:56.831Z,96364.22
2022-08-27T20:49:23.370Z,96370.75
2022-08-27T20:52:02.187Z,96369.53
2022-08-27T20:54:30.185Z,96361.78
2022-08-27T20:56:57.833Z,96363.81
2022-08-27T20:59:42.581Z,96357.69
2022-08-27T21:02:11.913Z,96362.16
2022-08-27T21:04:40.774Z,96366.97
2022-08-27T21:07:07.276Z,96369.47
2022-08-27T21:09:33.691Z,96365.56
2022-08-27T21:12:00.176Z,96368.41
2022-08-27T21:14:27.734Z,96357.69
2022-08-27T21:16:54.590Z,96365.44
2022-08-27T21:19:21.112Z,96365.06
2022-08-27T21:21:47.573Z,96359.31
2022-08-27T21:24:13.953Z,96361.81
2022-08-27T21:26:40.741Z,96366.53
2022-08-27T21:29:07.281Z,96364.91
2022-08-27T21:31:33.717Z,96369.84
2022-08-27T21:34:00.175Z,96372.16
2022-08-27T21:36:26.674Z,96372.97
2022-08-27T21:38:53.034Z,96377.88
2022-08-27T21:41:20.178Z,96376.03
2022-08-27T21:43:46.546Z,96369.69
2022-08-27T21:46:12.962Z,96378.72
2022-08-27T21:48:39.410Z,96383.66
2022-08-27T21:51:10.557Z,96389.78
2022-08-27T21:53:37.536Z,96387.75
2022-08-27T21:56:03.990Z,96386.69
2022-08-27T21:58:30.658Z,96392.28
2022-08-27T22:00:57.247Z,96394.72
2022-08-27T22:03:24.795Z,96396.19
2022-08-27T22:05:51.643Z,96389.59
2022-08-27T22:08:20.009Z,96395.16
2022-08-27T22:10:52.313Z,96393.50
2022-08-27T22:13:19.996Z,96391.47
2022-08-27T22:15:46.430Z,96392.47
2022-08-27T22:18:13.296Z,96388.16
2022-08-27T22:20:40.470Z,96386.94
2022-08-27T22:23:08.584Z,96389.19
2022-08-27T22:25:35.268Z,96383.25
2022-08-27T22:28:01.845Z,96378.34
2022-08-27T22:30:28.234Z,96374.81
2022-08-27T22:32:54.558Z,96376.69
2022-08-27T22:35:21.242Z,96368.47
2022-08-27T22:37:47.761Z,96376.06
2022-08-27T22:40:19.260Z,96369.69
2022-08-27T22:42:46.592Z,96373.41
2022-08-27T22:45:13.119Z,96370.94
2022-08-27T22:47:39.495Z,96373.00
2022-08-27T22:50:07.138Z,96368.91
2022-08-27T22:52:33.694Z,96370.53
2022-08-27T22:55:00.088Z,96376.50
2022-08-27T22:57:26.920Z,96370.75
2022-08-27T22:59:53.256Z,96373.81
2022-08-27T23:02:19.838Z,96365.59
2022-08-27T23:04:55.073Z,96367.88
2022-08-27T23:07:23.521Z,96369.69
2022-08-27T23:09:49.901Z,96365.59
2022-08-27T23:12:16.296Z,96363.94
2022-08-27T23:14:42.681Z,96364.38
2022-08-27T23:17:09.113Z,96360.47
2022-08-27T23:19:35.542Z,96359.84
2022-08-27T23:22:01.906Z,96365.38
2022-08-27T23:24:33.473Z,96368.44
2022-08-27T23:27:34.957Z,96367.00
2022-08-27T23:30:03.911Z,96369.00
2022-08-27T23:32:30.999Z,96375.59
2022-08-27T23:34:57.758Z,96368.22
2022-08-27T23:37:24.720Z,96361.44
2022-08-27T23:39:51.077Z,96364.31
2022-08-27T23:42:18.543Z,96362.69
2022-08-27T23:44:46.200Z,96357.34
2022-08-27T23:47:12.842Z,96363.47
2022-08-27T23:49:39.243Z,96359.56
2022-08-27T23:52:06.268Z,96356.53
2022-08-27T23:54:33.203Z,96353.47
2022-08-27T23:56:59.550Z,96356.59
2022-08-27T23:59:30.286Z,96356.75
